Etusivu
METAR-TAF:

METAR-TAF

Lentoasemat :

Grosse Ile Municipal Airport

Detroit / Grosse Ile, Michigan, Yhdysvallat

Leveyspiiri: 42-05-55N, Pituuspiiri: 083-09-40W, korkeus merenpinnasta: 180 m

Tämänhetkinen sää

Tämä raportti tehtiin 25 minuuttia sitten, kello 17.16 UTC
Tuuli 10 kn kaakosta puuskistuen 15 kn:hen
Lämpötila 17°C
Kosteus 77%
Ilmanpaine 1009 hPa
Näkyvyys: 16.1 km
Hajonneita pilviä 7000 ft:n korkeudessa

METAR: KONZ 211716Z AUTO 14010G15KT 10SM BKN070 17/13 A2981 RMK AO2 T01700126

Aika: 13:41 (17:41 UTC)


TAF: puuttuu

Säähavainnot ja -ennusteet yli 4000 lentoasemalta (METAR- ja TAF-raportit).

Käytössä olevat sääasemat on merkitty karttaan keltaisilla ja punaisilla pisteillä.

Aseta hiiri pisteen päälle nähdäksesi sääaseman nimen.

Klikkaa sitten nähdäksesi säähavainnot ja -ennusteet.

Kartan vaihtaminen: klikkaa mustalla rastilla varustettuja vihreitä pisteitä, niin voit zoomata sisään; viivalla varustettua vihreää pistettä, niin voit zoomata ulos tai vihreitä nuolia, niin pääset viereisille kartoille.


METAR-TAF: